Terminal Aerodrome Forecast
Issued by NWS

Home | Current Version | Previous Version | Text Only | Print | Product List | Glossary On
Versions: 1 2 3 4 5 6 7 8 9 10 11 12 13 14 15 16 17 18
187
FTUS46 KLOX 101139
TAFSBA
TAF
KSBA 101139Z 1012/1112 VRB03KT 1SM BR BKN003 OVC007
     FM101600 VRB03KT 4SM BR SCT007 OVC015
     FM102100 25008KT P6SM SCT015 BKN030
     FM110300 VRB03KT P6SM OVC015 PROB30 1104/1110 -SHRA=

USA.gov is the U.S. government's official web portal to all federal, state and local government web resources and services.